Lomira, Wisconsin
Current Conditions -  °F | °C
As of 4:53 PM on Tuesday 25 Nov 2014 (Local Time) from KFLD Reporting Station
Overcast Overcast  
Wind Chill: 12°   Ceiling: 1500
Heat Index: 21°   Visibility: 10mi
Dew Point: 14°   Wind: 7mph
Humidity: 74%   Direction: 250°WSW
Pressure: 30.12"   Gusts: NA
Location:  43.59°N, 88.44°W
Report Text: KFLD 252253Z AUTO 25006KT 10SM OVC015 M06/M10 A3012 RMK AO2 SLP213 T10611100
Loading
Personal Weather Stations






























Interactive Weather Map New forecast layout! Learn more

10-Day Weather Forecast

Advertisements
Track Severe Weather on mobile